Sagola, Michigan
Current Conditions -  °F | °C
As of 12:54 PM on Tuesday 27 Jan 2015 (Local Time) from KIMT Reporting Station
Overcast Overcast  
Wind Chill: 23°   Ceiling: 1800
Heat Index: 23°   Visibility: 10mi
Dew Point: 16°   Wind: 3mph
Humidity: 74%   Direction: 100°E
Pressure: 30.18"   Gusts: NA
Location:  46.09°N, 88.08°W
Report Text: KIMT 271854Z AUTO 10003KT 10SM OVC018 M05/M09 A3018 RMK AO2 SLP241 T10501089
Loading
Personal Weather Stations






























Interactive Weather Map New forecast layout! Learn more

10-Day Weather Forecast

Advertisements
Track Severe Weather on mobile